Atlantic, North Carolina
Current Conditions -  °F | °C
As of 7:56 AM on Wednesday 22 Oct 2014 (Local Time) from KNBT Reporting Station
Haze Haze  
Wind Chill: 58°   Ceiling: Unl
Heat Index: 58°   Visibility: 6mi
Dew Point: 48°   Wind: 16mph
Humidity: 70%   Direction: 310°NW
Pressure: 29.89"   Gusts: NA
Location:  34.89°N, 76.34°W
Report Text: KNBT 221156Z AUTO 31014KT 6SM HZ CLR 14/09 A2989 RMK AO2 SLP124 6//// 7//// T01440089 10178 20144 53014 PNO
Loading
Personal Weather Stations






























Interactive Weather Map
Tropical Storm Tracking
New forecast layout! Learn more

10-Day Weather Forecast

Advertisements
Track Severe Weather on mobile